Time;durP1;ratioP1;P1;durP2;ratioP2;P2;SDS_P1;SDS_P2;PMS_P1;PMS_P2;Temp;Humidity;BMP_temperature;BMP_pressure;BME280_temperature;BME280_humidity;BME280_pressure;Samples;Min_cycle;Max_cycle;Signal;HPM_P1;HPM_P2
2022/02/14 00:00:38;;;;;;;5.63;3.50;;;5.50;99.90;;;6.31;74.37;-19941.53;5134963;27;20288;-58
2022/02/14 00:03:08;;;;;;;3.53;2.87;;;5.50;99.90;;;6.35;73.26;-19943.06;5134154;27;20251;-55
2022/02/14 00:05:36;;;;;;;4.07;3.23;;;5.50;99.90;;;6.36;72.75;-19943.41;5134514;27;20309;-55
2022/02/14 00:08:05;;;;;;;4.13;3.40;;;5.60;99.90;;;6.38;72.36;-19944.09;5134101;27;20195;-56
2022/02/14 00:10:34;;;;;;;4.73;3.37;;;5.60;99.90;;;6.49;72.07;-19947.69;5134183;27;20288;-57
2022/02/14 00:13:02;;;;;;;5.73;3.40;;;5.60;99.90;;;6.47;72.01;-19947.19;5134395;27;20199;-57
2022/02/14 00:15:30;;;;;;;5.20;3.27;;;5.60;99.90;;;6.39;72.12;-19944.44;5134495;27;20202;-55
2022/02/14 00:17:58;;;;;;;4.07;3.23;;;5.60;99.90;;;6.10;73.38;-19934.53;5134130;27;20656;-57
2022/02/14 00:20:29;;;;;;;3.87;3.30;;;5.50;99.90;;;6.39;71.45;-19944.28;5133874;27;20689;-53
2022/02/14 00:22:57;;;;;;;3.97;3.10;;;5.50;99.90;;;6.06;72.96;-19933.34;5134162;27;20187;-55
2022/02/14 00:25:25;;;;;;;4.13;3.33;;;5.40;99.90;;;5.98;73.22;-19930.44;5134219;27;20296;-55
2022/02/14 00:27:53;;;;;;;6.50;3.13;;;5.40;99.90;;;6.18;72.37;-19937.44;5133728;27;20645;-56
2022/02/14 00:30:21;;;;;;;5.20;3.23;;;5.40;99.90;;;5.97;73.52;-19930.09;5133960;27;20623;-57
2022/02/14 00:32:50;;;;;;;4.83;3.73;;;5.30;99.90;;;6.09;72.73;-19934.34;5133622;27;20205;-56
2022/02/14 00:35:18;;;;;;;4.70;2.70;;;5.30;99.90;;;6.21;70.81;-19938.28;5133433;27;20219;-57
2022/02/14 00:37:49;;;;;;;4.30;3.00;;;5.40;99.90;;;6.21;70.71;-19938.28;5133937;27;20306;-56
2022/02/14 00:40:20;;;;;;;3.63;3.00;;;5.40;99.90;;;6.32;70.00;-19942.03;5133913;27;20200;-56
2022/02/14 00:42:48;;;;;;;3.90;3.20;;;5.50;99.90;;;6.18;70.37;-19937.44;5133692;27;20293;-56
2022/02/14 00:45:16;;;;;;;4.47;2.93;;;5.40;99.90;;;6.10;70.67;-19934.69;5133518;27;20221;-55
2022/02/14 00:47:44;;;;;;;5.30;3.03;;;5.40;99.90;;;6.28;70.59;-19940.50;5133606;27;20420;-54
2022/02/14 00:50:12;;;;;;;4.90;3.03;;;5.50;99.90;;;6.00;70.95;-19931.28;5133509;27;20292;-54
2022/02/14 00:52:41;;;;;;;5.17;3.03;;;5.40;99.90;;;6.04;71.71;-19932.66;5133557;27;20298;-54
2022/02/14 00:55:13;;;;;;;4.73;3.23;;;5.30;99.90;;;6.13;70.34;-19935.72;5133560;27;20197;-57
2022/02/14 00:57:41;;;;;;;3.53;2.70;;;5.30;99.90;;;6.11;70.26;-19934.88;5133218;27;20270;-56
2022/02/14 01:00:12;;;;;;;3.33;3.00;;;5.30;99.90;;;6.03;70.03;-19932.31;5133519;27;20625;-57
2022/02/14 01:02:41;;;;;;;3.50;2.60;;;5.40;99.90;;;5.85;71.46;-19925.97;5132830;27;20705;-57
2022/02/14 01:05:11;;;;;;;4.13;2.93;;;5.30;99.90;;;6.08;70.36;-19933.84;5135141;27;20202;-56
2022/02/14 01:07:39;;;;;;;3.67;3.27;;;5.30;99.90;;;6.19;69.52;-19937.59;5133570;27;20633;-57
2022/02/14 01:10:12;;;;;;;3.70;3.17;;;5.40;99.90;;;6.06;69.17;-19933.16;5133504;27;20377;-57
2022/02/14 01:12:41;;;;;;;4.63;3.10;;;5.30;99.90;;;6.19;69.31;-19937.78;5133499;27;20222;-58
2022/02/14 01:15:11;;;;;;;5.40;3.07;;;5.30;99.90;;;6.24;69.13;-19939.31;5133104;27;20296;-56
2022/02/14 01:17:39;;;;;;;4.87;2.73;;;5.40;99.90;;;6.22;68.38;-19938.47;5132843;27;20744;-57
2022/02/14 01:20:11;;;;;;;4.27;2.60;;;5.40;99.90;;;6.18;69.28;-19937.44;5133020;27;20289;-57
2022/02/14 01:22:40;;;;;;;3.50;3.00;;;5.40;99.90;;;6.27;68.62;-19940.16;5133152;27;20267;-57
2022/02/14 01:25:11;;;;;;;6.50;3.00;;;5.40;99.90;;;6.35;67.65;-19943.06;5132874;27;20201;-53
2022/02/14 01:27:40;;;;;;;3.53;2.80;;;5.50;99.90;;;6.30;67.75;-19941.19;5133081;27;20284;-56
2022/02/14 01:30:11;;;;;;;5.20;3.07;;;5.50;99.90;;;6.30;67.14;-19941.19;5133058;27;20300;-57
2022/02/14 01:32:40;;;;;;;3.07;2.60;;;5.60;99.90;;;6.09;68.04;-19934.19;5132873;27;20178;-56
2022/02/14 01:35:08;;;;;;;3.60;2.60;;;5.50;99.90;;;6.16;68.37;-19936.75;5132629;27;20199;-55
2022/02/14 01:37:39;;;;;;;3.53;2.73;;;5.40;99.90;;;6.03;68.45;-19932.31;5132719;27;20296;-55
2022/02/14 01:40:12;;;;;;;4.53;2.93;;;5.30;99.90;;;6.01;68.14;-19931.63;5132667;27;20263;-58
2022/02/14 01:42:41;;;;;;;6.07;3.10;;;5.40;99.90;;;6.14;68.01;-19935.88;5132687;27;20263;-56
2022/02/14 01:45:11;;;;;;;4.80;2.70;;;5.30;99.90;;;6.04;68.55;-19932.66;5132473;27;20297;-56
2022/02/14 01:47:41;;;;;;;3.30;2.60;;;5.30;99.90;;;6.25;67.77;-19939.66;5131502;27;20741;-56
2022/02/14 01:50:12;;;;;;;5.90;3.00;;;5.30;99.90;;;6.03;68.42;-19932.31;5132773;27;20184;-57
2022/02/14 01:52:41;;;;;;;4.87;2.80;;;5.30;99.90;;;6.18;67.90;-19937.44;5132628;27;20185;-57
2022/02/14 01:55:16;;;;;;;4.70;2.77;;;5.30;99.90;;;6.11;68.52;-19934.88;5132164;27;20560;-56
2022/02/14 01:57:44;;;;;;;4.27;2.80;;;5.40;99.90;;;5.96;67.77;-19929.91;5132416;27;20214;-52
2022/02/14 02:00:16;;;;;;;4.40;3.20;;;5.40;99.90;;;5.93;68.20;-19928.88;5132315;27;20329;-56
2022/02/14 02:02:45;;;;;;;3.60;2.60;;;5.30;99.90;;;5.85;68.65;-19925.97;5132337;27;20265;-56
2022/02/14 02:05:13;;;;;;;4.57;2.47;;;5.20;99.90;;;6.25;66.84;-19939.47;5132251;27;20235;-56
2022/02/14 02:07:42;;;;;;;4.30;2.70;;;5.30;99.90;;;6.01;67.40;-19931.63;5132381;27;20434;-55
2022/02/14 02:10:12;;;;;;;3.90;2.80;;;5.30;99.90;;;6.15;67.26;-19936.25;5132098;27;20236;-53
2022/02/14 02:12:50;;;;;;;3.23;2.93;;;5.30;99.90;;;6.02;68.15;-19931.78;5131980;27;20210;-56
2022/02/14 02:15:18;;;;;;;4.57;2.90;;;5.30;99.90;;;6.00;67.70;-19931.28;5132187;28;20220;-56
2022/02/14 02:17:47;;;;;;;4.20;2.53;;;5.30;99.90;;;6.02;67.54;-19931.97;5132211;27;20639;-55
2022/02/14 02:20:18;;;;;;;3.80;2.80;;;5.30;99.90;;;6.04;67.90;-19932.47;5131785;28;20226;-55
2022/02/14 02:22:50;;;;;;;3.30;2.50;;;5.30;99.90;;;5.96;68.08;-19929.91;5132300;28;20281;-55
2022/02/14 02:25:20;;;;;;;5.40;2.90;;;5.30;99.90;;;6.10;67.58;-19934.53;5132198;28;20273;-55
2022/02/14 02:27:49;;;;;;;4.10;2.83;;;5.30;99.90;;;6.05;67.79;-19932.97;5132229;28;20276;-55
2022/02/14 02:30:22;;;;;;;3.40;2.70;;;5.30;99.90;;;5.94;68.27;-19929.22;5132255;28;20212;-55
2022/02/14 02:32:51;;;;;;;2.70;2.50;;;5.20;99.90;;;5.99;67.93;-19930.94;5131831;27;20278;-57
2022/02/14 02:35:20;;;;;;;3.60;2.80;;;5.30;99.90;;;6.12;67.02;-19935.22;5131508;28;20254;-54
2022/02/14 02:37:48;;;;;;;3.10;2.57;;;5.30;99.90;;;5.91;67.80;-19928.03;5132019;28;20235;-58
2022/02/14 02:40:16;;;;;;;3.30;2.73;;;5.30;99.90;;;5.95;67.69;-19929.41;5131719;28;20600;-55
2022/02/14 02:42:46;;;;;;;4.33;2.70;;;5.30;99.90;;;5.96;67.55;-19929.75;5132013;28;20202;-57
2022/02/14 02:45:14;;;;;;;4.17;2.60;;;5.20;99.90;;;6.00;67.90;-19931.28;5131981;28;20279;-57
2022/02/14 02:47:42;;;;;;;3.23;2.60;;;5.20;99.90;;;6.10;67.01;-19934.69;5131748;28;20232;-55
2022/02/14 02:50:10;;;;;;;3.53;2.90;;;5.30;99.90;;;6.06;66.63;-19933.34;5131988;28;20296;-57
2022/02/14 02:52:38;;;;;;;4.97;2.70;;;5.30;99.90;;;5.82;67.80;-19925.13;5131957;27;20198;-56
2022/02/14 02:55:07;;;;;;;4.20;2.80;;;5.20;99.90;;;6.00;67.18;-19931.28;5131974;28;20211;-57
2022/02/14 02:57:35;;;;;;;2.97;2.47;;;5.20;99.90;;;6.16;65.92;-19936.75;5131809;27;20240;-57
2022/02/14 03:00:07;;;;;;;3.90;2.70;;;5.30;99.90;;;6.19;66.11;-19937.59;5134333;27;20221;-57
2022/02/14 03:02:35;;;;;;;4.03;2.67;;;5.40;99.90;;;6.29;65.69;-19941.03;5135726;27;20268;-57
2022/02/14 03:05:03;;;;;;;4.10;2.60;;;5.50;99.90;;;6.20;65.43;-19937.94;5135260;27;20683;-55
2022/02/14 03:07:31;;;;;;;4.30;2.60;;;5.40;99.90;;;6.00;66.18;-19931.28;5135553;27;20295;-56
2022/02/14 03:10:00;;;;;;;3.80;2.47;;;5.40;99.90;;;6.17;66.44;-19936.91;5135372;27;20213;-54
2022/02/14 03:12:28;;;;;;;3.73;2.73;;;5.30;99.90;;;6.04;66.58;-19932.66;5135656;27;20219;-57
2022/02/14 03:14:56;;;;;;;3.70;2.70;;;5.30;99.90;;;6.22;66.24;-19938.63;5135239;27;20205;-55
2022/02/14 03:17:25;;;;;;;3.57;2.97;;;5.30;99.90;;;5.98;67.10;-19930.44;5135390;27;20228;-57
2022/02/14 03:19:53;;;;;;;3.77;2.37;;;5.30;99.90;;;6.07;66.03;-19933.50;5134951;27;20803;-56
2022/02/14 03:22:21;;;;;;;4.00;2.57;;;5.30;99.90;;;6.17;66.06;-19937.09;5135310;27;20223;-56
2022/02/14 03:24:51;;;;;;;4.10;3.00;;;5.30;99.90;;;6.06;65.87;-19933.16;5135431;27;20362;-56
2022/02/14 03:27:18;;;;;;;3.83;2.83;;;5.30;99.90;;;5.95;66.86;-19929.56;5135048;27;20550;-56
2022/02/14 03:29:46;;;;;;;4.10;2.63;;;5.30;99.90;;;6.01;66.29;-19931.63;5134868;27;20197;-55
2022/02/14 03:32:14;;;;;;;4.60;3.00;;;5.20;99.90;;;6.07;66.32;-19933.50;5135125;27;20229;-57
2022/02/14 03:34:44;;;;;;;4.10;2.73;;;5.30;99.90;;;6.04;66.40;-19932.47;5134637;27;20207;-56
2022/02/14 03:37:12;;;;;;;4.00;2.90;;;5.30;99.90;;;6.17;65.69;-19937.09;5135131;27;20209;-55
2022/02/14 03:39:40;;;;;;;3.63;2.93;;;5.40;99.90;;;6.20;65.47;-19937.94;5135089;27;20566;-57
2022/02/14 03:42:08;;;;;;;4.47;2.93;;;5.40;99.90;;;6.30;65.16;-19941.38;5134638;27;20568;-55
2022/02/14 03:44:36;;;;;;;3.97;2.80;;;5.40;99.90;;;6.11;65.75;-19934.88;5135007;27;20240;-57
2022/02/14 03:47:04;;;;;;;5.57;2.77;;;5.40;99.90;;;6.22;65.39;-19938.78;5134554;27;20208;-57
2022/02/14 03:49:32;;;;;;;4.73;2.70;;;5.40;99.90;;;6.01;66.60;-19931.63;5134674;27;20279;-55
2022/02/14 03:52:02;;;;;;;3.80;3.03;;;5.40;99.90;;;6.21;65.58;-19938.13;5134865;27;20282;-57
2022/02/14 03:54:31;;;;;;;4.13;2.53;;;5.40;99.90;;;6.14;65.59;-19936.06;5134854;27;20290;-56
2022/02/14 03:57:01;;;;;;;3.70;2.97;;;5.40;99.90;;;6.10;65.88;-19934.69;5134813;27;20189;-55
2022/02/14 03:59:29;;;;;;;3.57;2.53;;;5.40;99.90;;;6.14;65.59;-19935.88;5134408;27;20558;-58
2022/02/14 04:01:57;;;;;;;6.03;2.83;;;5.40;99.90;;;6.09;66.21;-19934.34;5134272;27;20204;-53
2022/02/14 04:04:25;;;;;;;3.87;2.80;;;5.30;99.90;;;5.90;66.77;-19927.84;5134046;27;20203;-56
2022/02/14 04:06:53;;;;;;;4.93;3.07;;;5.30;99.90;;;5.90;66.96;-19927.69;5134212;27;20296;-55
2022/02/14 04:09:22;;;;;;;4.47;3.17;;;5.30;99.90;;;5.99;66.32;-19930.75;5134093;27;20300;-57
2022/02/14 04:11:50;;;;;;;5.33;2.80;;;5.20;99.90;;;5.95;66.53;-19929.41;5134446;27;20180;-55
2022/02/14 04:14:18;;;;;;;3.20;2.90;;;5.20;99.90;;;6.11;65.98;-19934.88;5134069;27;20202;-57
2022/02/14 04:16:46;;;;;;;3.33;2.60;;;5.30;99.90;;;6.17;65.32;-19937.09;5134098;27;20289;-56
2022/02/14 04:19:14;;;;;;;3.67;2.77;;;5.30;99.90;;;6.19;65.05;-19937.59;5134250;27;20289;-56
2022/02/14 04:21:42;;;;;;;3.80;2.80;;;5.40;99.90;;;6.09;65.72;-19934.19;5133685;27;20229;-56
2022/02/14 04:24:10;;;;;;;3.60;2.70;;;5.30;99.90;;;5.90;66.17;-19927.69;5134020;27;20745;-56
2022/02/14 04:26:39;;;;;;;3.30;2.90;;;5.20;99.90;;;5.87;66.48;-19926.84;5134133;27;20202;-55
2022/02/14 04:29:07;;;;;;;3.10;2.67;;;5.20;99.90;;;5.97;66.78;-19930.09;5134150;27;20211;-55
2022/02/14 04:31:35;;;;;;;3.90;2.80;;;5.10;99.90;;;5.97;66.80;-19930.09;5134194;27;20202;-55
2022/02/14 04:34:03;;;;;;;3.67;2.70;;;5.10;99.90;;;6.05;66.23;-19932.81;5133531;27;20961;-55
2022/02/14 04:36:32;;;;;;;3.97;2.80;;;5.10;99.90;;;5.93;66.30;-19928.72;5133501;27;20634;-56
2022/02/14 04:39:00;;;;;;;5.40;2.97;;;5.20;99.90;;;5.93;66.66;-19928.88;5133629;27;20701;-55
2022/02/14 04:41:28;;;;;;;5.73;2.70;;;5.20;99.90;;;5.97;66.79;-19930.09;5133732;27;20333;-55
2022/02/14 04:43:57;;;;;;;5.17;3.30;;;5.20;99.90;;;6.06;65.74;-19933.16;5134043;27;20635;-53
2022/02/14 04:46:25;;;;;;;4.23;2.73;;;5.30;99.90;;;5.84;67.26;-19925.63;5133788;27;20201;-56
2022/02/14 04:48:53;;;;;;;4.67;2.97;;;5.20;99.90;;;5.75;67.94;-19922.56;5133582;27;20232;-56
2022/02/14 04:51:21;;;;;;;3.87;2.87;;;5.10;99.90;;;5.76;67.48;-19922.91;5133304;27;20193;-57
2022/02/14 04:53:49;;;;;;;5.50;2.67;;;5.00;99.90;;;5.64;68.52;-19918.97;5133696;27;20222;-55
2022/02/14 04:56:17;;;;;;;3.87;3.00;;;5.00;99.90;;;5.75;67.84;-19922.72;5133319;27;20204;-55
2022/02/14 04:58:46;;;;;;;5.13;2.80;;;4.90;99.90;;;5.43;69.63;-19911.78;5133228;27;20671;-55
2022/02/14 05:01:16;;;;;;;5.97;2.90;;;4.90;99.90;;;5.73;68.10;-19921.88;5133038;27;20718;-57
2022/02/14 05:03:44;;;;;;;4.23;3.00;;;4.90;99.90;;;5.46;69.75;-19912.66;5133521;27;20196;-55
2022/02/14 05:06:12;;;;;;;4.13;2.90;;;4.80;99.90;;;5.39;70.10;-19910.25;5133321;27;20296;-55
2022/02/14 05:08:41;;;;;;;4.13;3.07;;;4.80;99.90;;;5.35;70.85;-19909.06;5133269;27;20292;-53
2022/02/14 05:11:11;;;;;;;4.27;2.87;;;4.70;99.90;;;5.21;71.55;-19904.28;5132992;27;20235;-58
2022/02/14 05:13:41;;;;;;;4.50;2.63;;;4.60;99.90;;;5.19;71.59;-19903.41;5133636;27;20270;-54
2022/02/14 05:16:09;;;;;;;3.50;2.97;;;4.60;99.90;;;5.37;70.69;-19909.75;5133237;27;20638;-56
2022/02/14 05:18:39;;;;;;;3.67;3.00;;;4.60;99.90;;;5.56;69.79;-19916.06;5132961;27;20197;-55
2022/02/14 05:21:07;;;;;;;3.43;2.73;;;4.70;99.90;;;5.40;70.45;-19910.59;5132470;27;20224;-57
2022/02/14 05:23:35;;;;;;;3.70;3.00;;;4.60;99.90;;;5.52;70.32;-19914.88;5132531;27;20351;-55
2022/02/14 05:26:03;;;;;;;3.80;2.40;;;4.60;99.90;;;5.45;70.83;-19912.47;5133069;27;20198;-56
2022/02/14 05:28:31;;;;;;;3.83;2.60;;;4.70;99.90;;;5.34;70.73;-19908.53;5132806;27;20201;-54
2022/02/14 05:30:59;;;;;;;5.43;3.13;;;4.60;99.90;;;5.42;70.26;-19911.28;5133028;27;20304;-57
2022/02/14 05:33:27;;;;;;;3.53;2.70;;;4.60;99.90;;;5.22;71.29;-19904.44;5132719;27;20200;-54
2022/02/14 05:35:57;;;;;;;3.23;2.60;;;4.60;99.90;;;5.16;72.06;-19902.56;5132769;27;20292;-56
2022/02/14 05:38:25;;;;;;;5.40;3.53;;;4.60;99.90;;;5.45;70.66;-19912.47;5132419;27;20569;-55
2022/02/14 05:40:53;;;;;;;6.43;3.00;;;4.60;99.90;;;5.34;70.86;-19908.53;5132611;27;20221;-57
2022/02/14 05:43:21;;;;;;;2.97;2.40;;;4.60;99.90;;;5.26;71.27;-19905.97;5132806;27;20201;-57
2022/02/14 05:45:49;;;;;;;4.93;2.77;;;4.50;99.90;;;5.04;72.96;-19898.47;5132620;27;20212;-52
2022/02/14 05:48:17;;;;;;;3.87;2.70;;;4.40;99.90;;;5.20;71.01;-19903.94;5132261;27;20708;-56
2022/02/14 05:50:45;;;;;;;5.23;2.93;;;4.40;99.90;;;5.19;71.77;-19903.41;5132292;27;20202;-55
2022/02/14 05:53:14;;;;;;;6.40;2.67;;;4.40;99.90;;;5.44;70.31;-19911.97;5132719;27;20241;-55
2022/02/14 05:55:42;;;;;;;4.00;2.63;;;4.60;99.90;;;5.13;71.82;-19901.53;5132268;27;20291;-54
2022/02/14 05:58:10;;;;;;;3.00;2.63;;;4.50;99.90;;;5.04;72.38;-19898.28;5132427;27;20201;-56
2022/02/14 06:00:38;;;;;;;4.20;2.77;;;4.40;99.90;;;4.92;73.14;-19894.34;5132299;27;20656;-57
2022/02/14 06:03:06;;;;;;;3.03;2.40;;;4.30;99.90;;;5.27;71.16;-19906.16;5131442;27;20286;-55
2022/02/14 06:05:34;;;;;;;5.00;2.70;;;4.40;99.90;;;5.36;70.09;-19909.41;5131748;27;20203;-55
2022/02/14 06:08:02;;;;;;;2.90;2.60;;;4.50;99.90;;;5.59;69.55;-19917.09;5132458;27;20299;-55
2022/02/14 06:10:32;;;;;;;4.20;2.67;;;4.60;99.90;;;5.58;69.77;-19916.91;5132007;27;20298;-55
2022/02/14 06:13:00;;;;;;;5.97;2.93;;;4.70;99.90;;;5.49;70.10;-19913.66;5132244;27;20292;-55
2022/02/14 06:15:28;;;;;;;3.30;2.90;;;4.70;99.90;;;5.63;68.60;-19918.63;5132102;27;20287;-55
2022/02/14 06:17:56;;;;;;;6.10;2.90;;;4.80;99.90;;;5.74;67.65;-19922.22;5131663;28;20669;-57
2022/02/14 06:20:24;;;;;;;4.53;2.90;;;4.90;99.90;;;5.81;67.05;-19924.59;5131944;27;20242;-56
2022/02/14 06:22:52;;;;;;;3.83;2.80;;;5.00;99.90;;;5.75;67.62;-19922.72;5132291;27;20219;-56
2022/02/14 06:25:21;;;;;;;4.43;2.70;;;5.00;99.90;;;5.63;68.30;-19918.63;5132309;27;20206;-55
2022/02/14 06:27:50;;;;;;;4.37;2.90;;;4.90;99.90;;;5.65;67.83;-19919.16;5132301;27;20215;-54
2022/02/14 06:30:19;;;;;;;4.73;2.53;;;5.00;99.90;;;5.57;67.65;-19916.41;5132194;27;20202;-56
2022/02/14 06:32:47;;;;;;;5.33;3.00;;;4.90;99.90;;;5.70;67.62;-19921.03;5132360;27;20656;-56
2022/02/14 06:35:15;;;;;;;4.50;3.67;;;4.90;99.90;;;5.89;66.47;-19927.53;5136186;27;20223;-56
2022/02/14 06:37:43;;;;;;;3.60;2.80;;;5.00;99.90;;;5.87;66.83;-19926.66;5136349;27;20232;-56
2022/02/14 06:40:14;;;;;;;3.33;2.70;;;5.00;99.90;;;5.65;67.71;-19919.31;5136188;27;20208;-55
2022/02/14 06:42:43;;;;;;;6.13;2.90;;;5.00;99.90;;;5.76;66.56;-19923.06;5136356;27;20221;-56
2022/02/14 06:45:12;;;;;;;3.23;2.93;;;5.00;99.90;;;5.80;67.19;-19924.44;5136462;27;20296;-56
2022/02/14 06:47:40;;;;;;;3.63;2.80;;;5.00;99.90;;;5.94;66.54;-19929.22;5135724;27;20732;-55
2022/02/14 06:50:09;;;;;;;3.57;2.80;;;5.10;99.90;;;6.00;66.59;-19931.28;5135941;27;20607;-55
2022/02/14 06:52:38;;;;;;;4.00;3.10;;;5.10;99.90;;;6.04;65.08;-19932.66;5136116;27;20284;-56
2022/02/14 06:55:08;;;;;;;4.93;2.53;;;5.10;99.90;;;5.78;66.76;-19923.59;5135789;27;20684;-56
2022/02/14 06:57:38;;;;;;;5.80;3.60;;;5.10;99.90;;;6.02;65.77;-19931.78;5135943;27;20232;-56
2022/02/14 07:00:12;;;;;;;5.90;3.37;;;5.10;99.90;;;5.93;66.58;-19928.72;5135582;27;20670;-55
2022/02/14 07:02:42;;;;;;;3.97;2.60;;;5.10;99.90;;;6.14;65.50;-19936.06;5135487;27;20205;-56
2022/02/14 07:05:11;;;;;;;3.40;2.83;;;5.20;99.90;;;5.95;67.43;-19929.56;5135740;27;20201;-55
2022/02/14 07:07:40;;;;;;;6.40;2.63;;;5.20;99.90;;;5.99;66.14;-19930.75;5135385;27;20245;-57
2022/02/14 07:10:09;;;;;;;6.40;3.20;;;5.20;99.90;;;6.15;65.09;-19936.41;5135329;27;20214;-57
2022/02/14 07:12:37;;;;;;;4.30;2.60;;;5.30;99.90;;;6.13;64.89;-19935.56;5135562;27;20204;-56
2022/02/14 07:15:06;;;;;;;3.70;3.00;;;5.30;99.90;;;6.19;64.85;-19937.78;5135345;27;20305;-56
2022/02/14 07:17:34;;;;;;;5.57;2.97;;;5.40;99.90;;;6.29;63.70;-19941.03;5134583;27;20297;-55
2022/02/14 07:20:05;;;;;;;4.67;2.50;;;5.40;99.90;;;6.40;63.95;-19944.59;5135381;27;20241;-56
2022/02/14 07:22:34;;;;;;;3.87;2.73;;;5.50;99.90;;;6.47;63.26;-19947.00;5135532;27;20231;-55
2022/02/14 07:25:02;;;;;;;5.20;2.97;;;5.60;99.90;;;6.65;61.85;-19953.31;5135238;27;20709;-56
2022/02/14 07:27:33;;;;;;;4.37;2.90;;;5.70;99.90;;;6.58;63.30;-19950.75;5135486;27;20226;-56
2022/02/14 07:30:02;;;;;;;3.87;2.80;;;5.70;99.90;;;6.70;62.41;-19954.84;5135606;27;20217;-59
2022/02/14 07:32:31;;;;;;;4.73;2.70;;;5.80;99.90;;;6.85;61.77;-19960.00;5135311;27;20222;-55
2022/02/14 07:34:59;;;;;;;4.90;2.80;;;5.80;99.90;;;6.88;60.58;-19961.00;5135052;27;20225;-58
2022/02/14 07:37:28;;;;;;;4.70;3.20;;;5.90;99.90;;;6.84;60.74;-19959.81;5135212;27;20234;-59
2022/02/14 07:39:56;;;;;;;3.97;2.53;;;6.00;99.90;;;6.95;60.53;-19963.41;5135134;27;20206;-54
2022/02/14 07:42:25;;;;;;;5.17;2.90;;;6.10;99.90;;;6.95;60.94;-19963.56;5135042;27;20222;-56
2022/02/14 07:44:53;;;;;;;4.07;3.30;;;6.10;99.90;;;7.03;59.91;-19966.31;5134079;27;20225;-55
2022/02/14 07:47:23;;;;;;;4.90;2.90;;;5.90;99.90;;;6.98;61.58;-19964.59;5134825;27;20205;-56
2022/02/14 07:49:51;;;;;;;4.67;3.10;;;6.10;99.90;;;7.11;59.68;-19969.03;5134676;27;20238;-57
2022/02/14 07:52:19;;;;;;;3.00;2.50;;;6.20;99.90;;;7.16;59.40;-19970.75;5134865;27;20199;-55
2022/02/14 07:54:49;;;;;;;4.50;2.93;;;6.30;99.90;;;7.23;59.35;-19973.16;5134812;27;20305;-55
2022/02/14 07:57:17;;;;;;;4.20;2.70;;;6.40;99.90;;;7.33;59.03;-19976.41;5134108;27;20190;-55
2022/02/14 07:59:46;;;;;;;3.60;2.60;;;6.40;99.90;;;7.49;58.10;-19981.88;5134306;27;20671;-58
2022/02/14 08:02:14;;;;;;;3.07;2.70;;;6.50;99.90;;;7.58;57.94;-19984.78;5134435;27;20660;-59
2022/02/14 08:04:43;;;;;;;4.23;2.53;;;6.60;99.90;;;7.78;56.79;-19991.78;5134136;27;20199;-56
2022/02/14 08:07:11;;;;;;;4.00;2.67;;;6.70;99.90;;;7.62;56.96;-19986.13;5134514;27;20210;-56
2022/02/14 08:09:41;;;;;;;4.53;2.77;;;6.80;99.90;;;7.77;57.31;-19991.25;5133965;27;20582;-57
2022/02/14 08:12:12;;;;;;;4.20;3.17;;;6.80;99.90;;;7.71;56.87;-19989.38;5134201;27;20197;-55
2022/02/14 08:14:42;;;;;;;4.07;2.60;;;6.80;99.90;;;7.91;55.86;-19996.22;5078328;27;20255;-56
2022/02/14 08:17:10;;;;;;;3.60;2.53;;;6.90;99.90;;;7.91;56.81;-19996.22;5088869;28;20261;-58
2022/02/14 08:19:38;;;;;;;4.33;2.70;;;7.00;99.90;;;7.83;57.06;-19993.47;5103095;28;20254;-57
2022/02/14 08:22:07;;;;;;;4.40;2.67;;;6.90;99.90;;;7.87;56.49;-19994.69;5082938;28;20239;-58
2022/02/14 08:24:35;;;;;;;3.93;2.50;;;7.00;99.90;;;7.84;56.27;-19993.66;5071781;28;20203;-55
2022/02/14 08:27:04;;;;;;;4.77;3.00;;;7.00;99.90;;;8.00;55.81;-19999.28;5072819;28;20211;-55
2022/02/14 08:29:33;;;;;;;3.97;2.80;;;7.10;99.90;;;7.98;56.20;-19998.59;5071836;28;20298;-56
2022/02/14 08:32:01;;;;;;;5.47;3.23;;;7.10;99.90;;;8.29;56.23;-20009.22;5071962;28;20307;-58
2022/02/14 08:34:30;;;;;;;4.80;3.03;;;7.20;99.90;;;8.27;54.89;-20008.34;5071894;28;20245;-55
2022/02/14 08:36:58;;;;;;;3.47;2.93;;;7.30;99.90;;;8.31;55.04;-20009.72;5071774;28;20259;-56
2022/02/14 08:39:26;;;;;;;4.27;3.00;;;7.30;99.90;;;8.26;54.56;-20008.00;5072621;28;20305;-56
2022/02/14 08:41:54;;;;;;;5.17;3.40;;;7.30;99.90;;;8.56;54.28;-20018.44;5071487;28;20255;-58
2022/02/14 08:44:23;;;;;;;3.70;2.83;;;7.50;99.90;;;8.49;54.35;-20016.03;5071574;28;20303;-57
2022/02/14 08:46:52;;;;;;;3.93;2.50;;;7.50;99.90;;;8.44;53.95;-20014.16;5071297;28;20282;-59
2022/02/14 08:49:24;;;;;;;5.77;3.00;;;7.50;99.90;;;8.54;53.12;-20017.75;5070802;28;20223;-56
2022/02/14 08:51:52;;;;;;;4.90;3.00;;;7.60;99.90;;;8.64;53.75;-20021.16;5071492;28;20804;-58
2022/02/14 08:54:20;;;;;;;4.30;3.07;;;7.70;99.90;;;8.70;53.68;-20022.88;5072146;28;20327;-56
2022/02/14 08:56:48;;;;;;;3.83;3.40;;;7.70;99.90;;;8.96;54.28;-20031.94;5071138;28;20228;-57
2022/02/14 08:59:19;;;;;;;4.77;2.60;;;7.90;99.90;;;9.07;52.72;-20035.50;5071396;28;20227;-53
2022/02/14 09:01:48;;;;;;;5.50;3.17;;;8.00;99.90;;;9.18;51.88;-20039.28;5071284;28;20650;-56
2022/02/14 09:04:17;;;;;;;4.43;2.90;;;8.10;99.90;;;9.09;51.83;-20036.38;5071005;28;20224;-54
2022/02/14 09:06:46;;;;;;;3.37;2.77;;;8.10;99.90;;;8.95;52.18;-20031.59;5070905;28;20205;-58
2022/02/14 09:09:30;;;;;;;5.57;3.10;;;8.10;99.90;;;9.17;51.48;-20038.94;5071223;28;20211;-56
2022/02/14 09:12:00;;;;;;;4.23;3.10;;;8.20;99.90;;;9.35;50.58;-20045.25;5071315;28;20280;-56
2022/02/14 09:14:28;;;;;;;4.33;2.80;;;8.30;99.90;;;9.46;51.22;-20048.84;5070968;28;20225;-58
2022/02/14 09:16:56;;;;;;;3.93;3.13;;;8.40;99.90;;;9.50;50.82;-20050.38;5070883;28;20311;-59
2022/02/14 09:19:26;;;;;;;3.57;2.60;;;8.50;99.90;;;9.49;50.86;-20050.03;5070994;28;20327;-57
2022/02/14 09:21:54;;;;;;;5.30;2.90;;;8.50;99.90;;;9.57;50.08;-20052.78;5081570;28;20227;-58
2022/02/14 09:24:22;;;;;;;5.87;3.07;;;8.50;99.90;;;9.75;49.70;-20058.75;5101201;28;20236;-54
2022/02/14 09:26:55;;;;;;;4.17;3.30;;;8.60;99.90;;;9.69;49.26;-20056.88;5091544;28;20228;-55
2022/02/14 09:29:24;;;;;;;4.47;3.03;;;8.70;99.90;;;9.69;50.30;-20056.88;5107188;28;20225;-58
2022/02/14 09:31:53;;;;;;;3.37;2.90;;;8.70;99.90;;;9.77;49.56;-20059.44;5111833;28;20273;-60
2022/02/14 09:34:22;;;;;;;3.57;3.10;;;8.70;99.90;;;9.87;49.84;-20062.84;5111328;28;20257;-59
2022/02/14 09:36:52;;;;;;;5.23;2.93;;;8.80;99.90;;;9.84;49.57;-20061.81;5105118;28;20195;-56
2022/02/14 09:39:21;;;;;;;4.97;2.90;;;8.90;99.90;;;10.03;49.10;-20068.16;5091344;28;20231;-58
2022/02/14 09:41:50;;;;;;;4.83;3.00;;;8.90;99.90;;;10.07;49.00;-20069.50;5091118;28;20247;-59
2022/02/14 09:44:18;;;;;;;3.73;2.80;;;9.00;99.90;;;10.22;49.59;-20074.63;5090931;28;20657;-55
2022/02/14 09:46:46;;;;;;;3.30;2.50;;;9.10;99.90;;;10.14;49.43;-20071.91;5090928;28;20312;-58
2022/02/14 09:49:14;;;;;;;3.43;2.80;;;9.10;99.90;;;10.20;48.98;-20073.97;5090734;28;20286;-56
2022/02/14 09:51:42;;;;;;;3.83;2.80;;;9.20;99.90;;;10.45;48.98;-20082.50;5091376;28;20714;-55
2022/02/14 09:54:11;;;;;;;4.30;3.10;;;9.30;99.90;;;10.51;49.15;-20084.53;5099175;28;20223;-57
2022/02/14 09:56:41;;;;;;;4.17;3.10;;;9.40;99.90;;;10.66;48.02;-20089.66;5111331;28;20225;-57
2022/02/14 09:59:11;;;;;;;3.43;2.90;;;9.50;99.90;;;10.75;48.29;-20092.75;5111266;28;20782;-57
2022/02/14 10:01:44;;;;;;;5.10;2.90;;;9.60;99.90;;;10.92;48.01;-20098.72;5111003;28;20230;-58
2022/02/14 10:04:13;;;;;;;3.83;2.83;;;9.70;99.90;;;10.92;47.50;-20098.56;5110778;28;20211;-57
2022/02/14 10:06:44;;;;;;;6.37;2.97;;;9.80;99.90;;;11.13;48.01;-20105.56;5111620;28;20195;-57
2022/02/14 10:09:16;;;;;;;2.60;2.40;;;9.90;99.90;;;11.19;47.08;-20107.78;5110288;28;20251;-58
2022/02/14 10:12:05;;;;;;;4.03;2.60;;;10.00;99.90;;;11.04;47.24;-20102.66;5111402;28;20306;-56
2022/02/14 10:14:35;;;;;;;3.23;2.80;;;10.00;99.90;;;11.17;46.83;-20107.09;5111330;28;20220;-55
2022/02/14 10:17:08;;;;;;;4.90;2.97;;;10.10;99.90;;;10.98;46.98;-20100.59;5110669;28;20310;-56
2022/02/14 10:19:45;;;;;;;4.83;2.90;;;10.00;99.90;;;10.91;47.41;-20098.38;5111423;28;20222;-58
2022/02/14 10:22:14;;;;;;;4.03;2.70;;;9.90;99.90;;;10.72;47.56;-20091.88;5110604;28;20584;-55
2022/02/14 10:24:45;;;;;;;3.40;2.63;;;9.90;99.90;;;10.86;48.38;-20096.50;5111397;28;20306;-60
2022/02/14 10:27:15;;;;;;;5.93;3.00;;;9.90;99.90;;;10.95;48.58;-20099.75;5110949;28;20223;-58
2022/02/14 10:29:44;;;;;;;5.10;2.93;;;9.90;99.90;;;11.35;47.83;-20113.06;5090372;28;20223;-55
2022/02/14 10:32:20;;;;;;;5.17;2.97;;;10.10;99.90;;;11.30;46.82;-20111.53;5090567;28;20226;-56